< < Back
Terminal Aerodrome Forecast


Current Version              Previous Versions:   1  2  3  4  5  6  7  8  9  

Terminal Aerodrome Forecast

376
FTUS42 KFFC 290100 AAA
TAFPDK
TAF AMD
KPDK 290130Z 2902/2924 33007KT P6SM FEW070
     FM291600 34012G18KT P6SM SCT050=



Latest METAR

934
SAUS70 KWBC 290400 RRC
MTRPDK
METAR KPDK 290353Z AUTO 32005KT 10SM CLR 23/15 A2999 RMK AO2 SLP136
T02280150 $


USA.gov is the U.S. government's official web portal to all federal, state and local government web resources and services.